createdAt,value
2019-05-06T00:02:09.870Z,66.37
2019-05-06T00:04:44.708Z,43.37
2019-05-06T00:07:17.080Z,51.30
2019-05-06T00:09:49.860Z,51.83
2019-05-06T00:12:24.005Z,50.23
2019-05-06T00:14:56.816Z,181.50
2019-05-06T00:17:29.385Z,210.53
2019-05-06T00:20:04.123Z,51.77
2019-05-06T00:22:36.176Z,55.20
2019-05-06T00:25:14.088Z,48.23
2019-05-06T00:27:54.296Z,51.20
2019-05-06T00:30:26.487Z,115.27
2019-05-06T00:32:58.836Z,57.00
2019-05-06T00:35:31.444Z,68.40
2019-05-06T00:38:04.499Z,55.67
2019-05-06T00:40:54.775Z,32.47
2019-05-06T00:43:27.414Z,31.87
2019-05-06T00:46:00.770Z,29.00
2019-05-06T00:48:34.098Z,25.70
2019-05-06T00:51:07.198Z,39.17
2019-05-06T00:53:43.915Z,29.70
2019-05-06T00:56:16.595Z,30.57
2019-05-06T00:58:49.154Z,30.90
2019-05-06T01:01:26.977Z,32.30
2019-05-06T01:03:56.254Z,32.70
2019-05-06T01:06:29.056Z,32.47
2019-05-06T01:09:04.596Z,34.33
2019-05-06T01:11:39.121Z,32.37
2019-05-06T01:14:14.812Z,32.00
2019-05-06T01:16:47.745Z,32.90
2019-05-06T01:19:20.185Z,35.83
2019-05-06T01:21:54.014Z,30.60
2019-05-06T01:24:27.205Z,30.17
2019-05-06T01:26:59.940Z,45.83
2019-05-06T01:29:34.622Z,39.37
2019-05-06T01:32:06.845Z,36.77
2019-05-06T01:34:39.330Z,32.37
2019-05-06T01:37:14.270Z,33.30
2019-05-06T01:39:54.184Z,34.20
2019-05-06T01:42:46.870Z,38.10
2019-05-06T01:45:19.965Z,30.17
2019-05-06T01:47:54.339Z,33.83
2019-05-06T01:50:27.035Z,37.57
2019-05-06T01:52:59.795Z,43.70
2019-05-06T01:55:34.211Z,53.47
2019-05-06T01:58:06.873Z,53.00
2019-05-06T02:00:39.661Z,47.67
2019-05-06T02:03:14.730Z,57.13
2019-05-06T02:05:47.259Z,46.90
2019-05-06T02:08:20.000Z,50.50
2019-05-06T02:10:54.555Z,44.80
2019-05-06T02:13:27.185Z,41.10
2019-05-06T02:15:59.875Z,50.07
2019-05-06T02:18:33.970Z,44.47
2019-05-06T02:21:08.485Z,44.53
2019-05-06T02:23:44.148Z,47.43
2019-05-06T02:26:16.926Z,45.47
2019-05-06T02:28:51.095Z,53.47
2019-05-06T02:31:41.586Z,49.67
2019-05-06T02:34:25.900Z,47.10
2019-05-06T02:37:16.375Z,49.97
2019-05-06T02:39:49.126Z,54.97
2019-05-06T02:42:23.937Z,84.23
2019-05-06T02:44:56.218Z,67.03
2019-05-06T02:47:37.256Z,61.93
2019-05-06T02:50:14.616Z,55.60
2019-05-06T02:52:47.301Z,61.33
2019-05-06T02:55:19.853Z,59.37
2019-05-06T02:57:53.635Z,71.00
2019-05-06T03:00:26.732Z,60.67
2019-05-06T03:03:02.730Z,59.53
2019-05-06T03:05:33.825Z,64.03
2019-05-06T03:08:06.480Z,60.93
2019-05-06T03:10:39.236Z,59.53
2019-05-06T03:13:14.240Z,53.83
2019-05-06T03:15:46.445Z,62.20
2019-05-06T03:18:19.250Z,61.40
2019-05-06T03:20:59.903Z,62.53
2019-05-06T03:23:43.312Z,54.70
2019-05-06T03:26:14.529Z,65.17
2019-05-06T03:28:47.156Z,52.73
2019-05-06T03:31:25.307Z,58.97
2019-05-06T03:34:13.207Z,61.20
2019-05-06T03:36:34.918Z,53.10
2019-05-06T03:39:05.762Z,58.03
2019-05-06T03:41:38.872Z,55.70
2019-05-06T03:44:16.286Z,57.00
2019-05-06T03:46:54.432Z,55.67
2019-05-06T03:49:28.790Z,55.00
2019-05-06T03:52:02.788Z,64.30
2019-05-06T03:54:37.295Z,68.00
2019-05-06T03:57:09.898Z,56.20
2019-05-06T03:59:43.557Z,53.63
2019-05-06T04:02:17.796Z,56.27
2019-05-06T04:04:55.824Z,68.57
2019-05-06T04:07:25.280Z,59.57
2019-05-06T04:09:58.014Z,60.27
2019-05-06T04:12:33.668Z,60.40
2019-05-06T04:15:07.792Z,63.87
2019-05-06T04:17:43.803Z,63.50
2019-05-06T04:20:16.977Z,69.37
2019-05-06T04:22:53.256Z,59.37
2019-05-06T04:25:44.800Z,55.93
2019-05-06T04:28:19.100Z,59.80
2019-05-06T04:30:54.564Z,63.77
2019-05-06T04:33:27.123Z,55.73
2019-05-06T04:36:03.393Z,49.63
2019-05-06T04:38:35.335Z,52.57
2019-05-06T04:41:08.141Z,61.30
2019-05-06T04:43:43.619Z,72.80
2019-05-06T04:46:16.935Z,66.73
2019-05-06T04:48:49.727Z,65.77
2019-05-06T04:51:24.791Z,64.67
2019-05-06T04:53:57.389Z,67.83
2019-05-06T04:56:33.174Z,62.93
2019-05-06T04:59:06.240Z,53.33
2019-05-06T05:01:39.545Z,53.17
2019-05-06T05:04:24.658Z,55.03
2019-05-06T05:06:48.136Z,70.63
2019-05-06T05:09:23.083Z,46.23
2019-05-06T05:11:58.158Z,62.93
2019-05-06T05:14:38.335Z,58.30
2019-05-06T05:17:28.020Z,42.17
2019-05-06T05:20:02.127Z,37.13
2019-05-06T05:22:35.730Z,22.23
2019-05-06T05:25:09.075Z,27.97
2019-05-06T05:27:42.190Z,38.43
2019-05-06T05:30:15.760Z,58.67
2019-05-06T05:32:49.086Z,61.77
2019-05-06T05:35:22.719Z,44.00
2019-05-06T05:37:56.949Z,174.57
2019-05-06T05:40:32.068Z,209.20
2019-05-06T05:43:09.081Z,45.87
2019-05-06T05:45:42.411Z,90.20
2019-05-06T05:48:28.810Z,26.03
2019-05-06T05:51:03.285Z,21.23
2019-05-06T05:53:36.064Z,71.37
2019-05-06T05:56:09.261Z,57.77
2019-05-06T05:58:42.527Z,31.27
2019-05-06T06:01:15.228Z,15.37
2019-05-06T06:03:48.125Z,132.20
2019-05-06T06:06:22.160Z,18.00
2019-05-06T06:08:56.540Z,35.60
2019-05-06T06:11:33.389Z,105.93
2019-05-06T06:14:07.758Z,15.27
2019-05-06T06:16:42.320Z,55.43
2019-05-06T06:19:22.129Z,23.13
2019-05-06T06:21:56.537Z,22.33
2019-05-06T06:24:32.229Z,48.33
2019-05-06T06:27:05.859Z,51.40
2019-05-06T06:29:38.374Z,73.77
2019-05-06T06:32:27.936Z,51.40
2019-05-06T06:35:11.487Z,45.33
2019-05-06T06:37:53.220Z,65.53
2019-05-06T06:40:26.800Z,7.40
2019-05-06T06:43:02.206Z,14.27
2019-05-06T06:45:35.650Z,27.70
2019-05-06T06:48:08.630Z,71.17
2019-05-06T06:50:42.643Z,26.53
2019-05-06T06:53:15.596Z,38.83
2019-05-06T06:55:48.325Z,16.10
2019-05-06T06:58:26.296Z,52.47
2019-05-06T07:01:03.139Z,47.60
2019-05-06T07:03:39.295Z,28.03
2019-05-06T07:06:23.819Z,15.77
2019-05-06T07:08:56.697Z,19.17
2019-05-06T07:11:29.515Z,20.93
2019-05-06T07:14:02.716Z,40.20
2019-05-06T07:16:35.409Z,19.90
2019-05-06T07:19:08.230Z,9.47
2019-05-06T07:21:43.544Z,12.47
2019-05-06T07:24:16.330Z,17.23
2019-05-06T07:26:53.550Z,39.47
2019-05-06T07:29:26.729Z,50.60
2019-05-06T07:31:59.835Z,28.00
2019-05-06T07:34:32.286Z,18.07
2019-05-06T07:37:04.685Z,15.87
2019-05-06T07:39:38.355Z,22.57
2019-05-06T07:42:22.712Z,16.03
2019-05-06T07:45:06.420Z,13.97
2019-05-06T07:47:42.631Z,18.30
2019-05-06T07:50:15.765Z,11.97
2019-05-06T07:53:02.379Z,11.30
2019-05-06T07:55:35.115Z,23.80
2019-05-06T07:58:08.108Z,30.27
2019-05-06T08:00:42.300Z,9.23
2019-05-06T08:03:14.980Z,13.63
2019-05-06T08:05:57.503Z,9.83
2019-05-06T08:08:23.066Z,27.30
2019-05-06T08:10:55.655Z,25.00
2019-05-06T08:13:27.936Z,13.70
2019-05-06T08:16:02.271Z,14.53
2019-05-06T08:18:34.575Z,19.13
2019-05-06T08:21:08.535Z,9.23
2019-05-06T08:23:42.887Z,13.03
2019-05-06T08:26:17.792Z,21.53
2019-05-06T08:28:52.615Z,7.33
2019-05-06T08:31:25.015Z,12.37
2019-05-06T08:33:57.556Z,9.23
2019-05-06T08:36:42.634Z,8.80
2019-05-06T08:39:15.555Z,8.50
2019-05-06T08:41:48.255Z,15.27
2019-05-06T08:44:22.479Z,21.17
2019-05-06T08:46:55.297Z,17.20
2019-05-06T08:49:29.275Z,14.50
2019-05-06T08:52:03.177Z,10.57
2019-05-06T08:54:37.875Z,9.27
2019-05-06T08:57:11.903Z,6.50
2019-05-06T08:59:44.485Z,4.57
2019-05-06T09:02:17.515Z,8.03
2019-05-06T09:04:51.815Z,8.57
2019-05-06T09:07:24.296Z,5.53
2019-05-06T09:09:56.936Z,6.23
2019-05-06T09:12:29.595Z,9.03
2019-05-06T09:15:03.505Z,8.27
2019-05-06T09:17:37.594Z,7.93
2019-05-06T09:20:12.901Z,8.77
2019-05-06T09:22:44.895Z,9.10
2019-05-06T09:25:17.595Z,7.97
2019-05-06T09:27:52.668Z,11.00
2019-05-06T09:30:43.072Z,9.43
2019-05-06T09:33:16.454Z,9.10
2019-05-06T09:35:49.195Z,7.47
2019-05-06T09:38:22.842Z,11.57
2019-05-06T09:40:55.407Z,7.33
2019-05-06T09:43:28.316Z,6.50
2019-05-06T09:46:03.555Z,7.47
2019-05-06T09:48:42.443Z,7.73
2019-05-06T09:51:15.355Z,9.23
2019-05-06T09:54:08.156Z,7.27
2019-05-06T09:56:58.798Z,6.40
2019-05-06T09:59:32.173Z,6.00
2019-05-06T10:02:05.608Z,5.93
2019-05-06T10:04:38.935Z,6.43
2019-05-06T10:07:14.295Z,13.23
2019-05-06T10:09:46.715Z,6.80
2019-05-06T10:12:19.781Z,14.37
2019-05-06T10:14:53.211Z,12.97
2019-05-06T10:17:25.903Z,13.27
2019-05-06T10:19:58.795Z,8.70
2019-05-06T10:22:32.438Z,8.07
2019-05-06T10:25:06.496Z,8.43
2019-05-06T10:27:42.212Z,8.30
2019-05-06T10:30:17.616Z,8.80
2019-05-06T10:32:52.886Z,6.60
2019-05-06T10:35:29.169Z,15.10
2019-05-06T10:38:32.815Z,16.27
2019-05-06T10:41:22.483Z,13.90
2019-05-06T10:44:42.787Z,7.30
2019-05-06T10:47:14.355Z,8.37
2019-05-06T10:49:46.857Z,8.07
2019-05-06T10:52:24.134Z,7.80
2019-05-06T10:54:57.135Z,14.27
2019-05-06T10:57:32.825Z,6.40
2019-05-06T11:00:07.866Z,9.73
2019-05-06T11:02:45.975Z,5.87
2019-05-06T11:05:19.111Z,12.27
2019-05-06T11:07:52.677Z,10.53
2019-05-06T11:10:29.528Z,9.63
2019-05-06T11:12:59.114Z,10.50
2019-05-06T11:15:33.025Z,9.37
2019-05-06T11:18:06.215Z,9.27
2019-05-06T11:20:40.093Z,12.67
2019-05-06T11:23:14.144Z,13.00
2019-05-06T11:25:46.536Z,19.20
2019-05-06T11:28:36.475Z,10.27
2019-05-06T11:31:09.374Z,13.53
2019-05-06T11:33:52.596Z,13.00
2019-05-06T11:36:29.496Z,16.03
2019-05-06T11:39:07.600Z,12.83
2019-05-06T11:41:56.487Z,14.57
2019-05-06T11:44:14.475Z,10.33
2019-05-06T11:46:46.895Z,8.87
2019-05-06T11:49:20.325Z,15.33
2019-05-06T11:51:52.599Z,9.53
2019-05-06T11:54:25.137Z,9.07
2019-05-06T11:56:58.578Z,10.43
2019-05-06T11:59:31.335Z,9.00
2019-05-06T12:02:08.275Z,15.47
2019-05-06T12:04:41.940Z,9.60
2019-05-06T12:07:15.699Z,13.17
2019-05-06T12:09:48.826Z,7.43
2019-05-06T12:12:23.343Z,13.07
2019-05-06T12:14:55.675Z,5.20
2019-05-06T12:17:28.035Z,29.13
2019-05-06T12:20:02.990Z,50.37
2019-05-06T12:22:37.795Z,72.40
2019-05-06T12:25:15.301Z,114.97
2019-05-06T12:27:49.495Z,162.27
2019-05-06T12:30:24.556Z,90.10
2019-05-06T12:33:03.238Z,35.57
2019-05-06T12:35:37.835Z,76.53
2019-05-06T12:38:26.708Z,21.57
2019-05-06T12:40:48.895Z,84.17
2019-05-06T12:43:24.436Z,30.67
2019-05-06T12:46:02.960Z,41.80
2019-05-06T12:48:43.972Z,54.13
2019-05-06T12:51:16.916Z,38.00
2019-05-06T12:53:49.395Z,12.90
2019-05-06T12:56:24.395Z,11.50
2019-05-06T12:58:57.315Z,13.80
2019-05-06T13:01:33.496Z,17.77
2019-05-06T13:04:04.831Z,17.20
2019-05-06T13:06:37.565Z,15.53
2019-05-06T13:09:12.420Z,6.33
2019-05-06T13:11:44.055Z,84.13
2019-05-06T13:14:16.500Z,55.50
2019-05-06T13:16:49.137Z,12.70
2019-05-06T13:19:22.815Z,24.23
2019-05-06T13:21:55.659Z,18.87
2019-05-06T13:24:28.156Z,37.53
2019-05-06T13:27:02.608Z,15.87
2019-05-06T13:29:35.713Z,12.23
2019-05-06T13:32:12.674Z,23.97
2019-05-06T13:34:44.958Z,14.83
2019-05-06T13:37:17.842Z,15.77
2019-05-06T13:39:52.768Z,17.70
2019-05-06T13:42:27.055Z,27.50
2019-05-06T13:44:59.456Z,8.53
2019-05-06T13:47:43.776Z,21.10
2019-05-06T13:50:22.910Z,16.30
2019-05-06T13:53:08.041Z,10.50
2019-05-06T13:55:31.096Z,18.73
2019-05-06T13:58:03.761Z,12.70
2019-05-06T14:00:37.015Z,10.87
2019-05-06T14:03:09.535Z,6.23
2019-05-06T14:05:42.579Z,7.23
2019-05-06T14:08:15.186Z,8.07
2019-05-06T14:10:56.796Z,10.25
2019-05-06T14:13:22.099Z,4.40
2019-05-06T14:15:54.675Z,9.83
2019-05-06T14:18:28.075Z,5.67
2019-05-06T14:21:02.919Z,11.27
2019-05-06T14:23:34.835Z,9.93
2019-05-06T14:26:07.415Z,6.67
2019-05-06T14:28:43.041Z,9.00
2019-05-06T14:31:17.185Z,9.70
2019-05-06T14:33:52.095Z,15.20
2019-05-06T14:36:27.542Z,5.60
2019-05-06T14:38:58.936Z,8.70
2019-05-06T14:41:32.747Z,5.30
2019-05-06T14:44:07.511Z,66.10
2019-05-06T14:46:57.192Z,8.13
2019-05-06T14:49:32.377Z,7.77
2019-05-06T14:52:06.054Z,6.40
2019-05-06T14:54:49.485Z,8.10
2019-05-06T14:57:22.928Z,7.13
2019-05-06T14:59:55.970Z,7.80
2019-05-06T15:02:28.917Z,9.70
2019-05-06T15:05:02.988Z,6.60
2019-05-06T15:07:35.965Z,6.70
2019-05-06T15:10:20.311Z,6.30
2019-05-06T15:12:43.591Z,8.10
2019-05-06T15:15:16.939Z,6.13
2019-05-06T15:17:49.476Z,8.83
2019-05-06T15:20:23.027Z,9.03
2019-05-06T15:22:56.360Z,10.90
2019-05-06T15:25:28.985Z,8.10
2019-05-06T15:28:02.545Z,8.00
2019-05-06T15:30:46.080Z,9.43
2019-05-06T15:33:22.465Z,10.47
2019-05-06T15:35:59.506Z,16.77
2019-05-06T15:38:32.603Z,14.37
2019-05-06T15:41:05.411Z,5.60
2019-05-06T15:43:38.250Z,6.97
2019-05-06T15:46:12.217Z,9.50
2019-05-06T15:48:45.030Z,6.43
2019-05-06T15:51:19.220Z,9.10
2019-05-06T15:53:52.961Z,6.73
2019-05-06T15:56:25.881Z,11.37
2019-05-06T15:58:58.310Z,11.23
2019-05-06T16:01:33.213Z,17.40
2019-05-06T16:04:05.499Z,8.13
2019-05-06T16:06:38.355Z,20.90
2019-05-06T16:09:14.219Z,8.33
2019-05-06T16:11:45.155Z,8.53
2019-05-06T16:14:17.585Z,14.10
2019-05-06T16:16:52.677Z,14.30
2019-05-06T16:19:24.964Z,6.73
2019-05-06T16:21:57.989Z,10.47
2019-05-06T16:24:35.244Z,8.37
2019-05-06T16:27:07.949Z,9.33
2019-05-06T16:29:42.888Z,8.50
2019-05-06T16:32:16.740Z,14.77
2019-05-06T16:34:49.816Z,27.43
2019-05-06T16:37:22.453Z,10.00
2019-05-06T16:39:55.015Z,32.40
2019-05-06T16:42:27.861Z,79.93
2019-05-06T16:45:06.963Z,15.13
2019-05-06T16:47:37.656Z,9.13
2019-05-06T16:50:17.375Z,9.23
2019-05-06T16:52:52.341Z,7.73
2019-05-06T16:55:28.899Z,15.00
2019-05-06T16:58:06.265Z,41.03
2019-05-06T17:00:38.870Z,22.70
2019-05-06T17:03:14.593Z,21.03
2019-05-06T17:05:52.002Z,27.77
2019-05-06T17:08:24.995Z,20.80
2019-05-06T17:10:57.786Z,19.03
2019-05-06T17:13:31.078Z,17.17
2019-05-06T17:16:03.789Z,19.40
2019-05-06T17:18:36.490Z,20.37
2019-05-06T17:21:09.201Z,19.60
2019-05-06T17:23:42.319Z,15.80
2019-05-06T17:26:15.076Z,10.17
2019-05-06T17:28:49.216Z,26.57
2019-05-06T17:31:37.135Z,40.53
2019-05-06T17:34:12.823Z,32.87
2019-05-06T17:36:46.047Z,36.27
2019-05-06T17:39:18.660Z,33.93
2019-05-06T17:41:52.192Z,17.87
2019-05-06T17:44:25.290Z,21.40
2019-05-06T17:47:02.653Z,57.63
2019-05-06T17:49:37.045Z,31.90
2019-05-06T17:52:14.226Z,23.93
2019-05-06T17:54:46.786Z,27.67
2019-05-06T17:57:19.440Z,33.23
2019-05-06T17:59:52.824Z,56.70
2019-05-06T18:02:27.202Z,57.77
2019-05-06T18:04:59.680Z,87.20
2019-05-06T18:07:32.785Z,77.70
2019-05-06T18:10:06.200Z,86.13
2019-05-06T18:12:38.956Z,140.07
2019-05-06T18:15:13.377Z,168.93
2019-05-06T18:17:46.244Z,168.57
2019-05-06T18:20:19.125Z,273.50
2019-05-06T18:22:52.502Z,169.23
2019-05-06T18:25:25.435Z,139.50
2019-05-06T18:27:58.005Z,90.43
2019-05-06T18:30:34.289Z,172.63
2019-05-06T18:33:05.287Z,432.83
2019-05-06T18:35:37.965Z,322.53
2019-05-06T18:38:10.505Z,436.40
2019-05-06T18:40:43.175Z,266.37
2019-05-06T18:43:15.905Z,208.53
2019-05-06T18:45:48.815Z,148.43
2019-05-06T18:48:22.440Z,169.77
2019-05-06T18:50:55.175Z,130.33
2019-05-06T18:53:28.945Z,118.33
2019-05-06T18:56:03.116Z,151.40
2019-05-06T18:58:36.030Z,146.80
2019-05-06T19:01:08.966Z,120.60
2019-05-06T19:03:46.461Z,171.10
2019-05-06T19:06:19.035Z,185.97
2019-05-06T19:09:02.629Z,127.80
2019-05-06T19:11:37.070Z,122.07
2019-05-06T19:14:09.656Z,234.83
2019-05-06T19:16:49.854Z,273.27
2019-05-06T19:19:16.695Z,248.13
2019-05-06T19:21:49.225Z,276.13
2019-05-06T19:24:22.669Z,154.67
2019-05-06T19:26:55.474Z,357.53
2019-05-06T19:29:28.300Z,362.63
2019-05-06T19:32:03.037Z,451.63
2019-05-06T19:34:36.240Z,159.10
2019-05-06T19:37:09.132Z,129.63
2019-05-06T19:39:43.120Z,234.67
2019-05-06T19:42:16.105Z,260.93
2019-05-06T19:44:48.806Z,190.07
2019-05-06T19:47:21.431Z,275.73
2019-05-06T19:49:54.290Z,331.07
2019-05-06T19:52:26.926Z,134.23
2019-05-06T19:55:02.924Z,279.37
2019-05-06T19:57:34.804Z,198.87
2019-05-06T20:00:09.080Z,561.30
2019-05-06T20:02:42.936Z,131.90
2019-05-06T20:05:17.505Z,451.70
2019-05-06T20:07:52.230Z,201.90
2019-05-06T20:10:26.529Z,205.53
2019-05-06T20:13:05.276Z,302.33
2019-05-06T20:15:39.055Z,126.77
2019-05-06T20:18:12.894Z,172.83
2019-05-06T20:20:45.685Z,183.77
2019-05-06T20:23:18.215Z,174.20
2019-05-06T20:25:51.926Z,71.60
2019-05-06T20:28:24.795Z,111.20
2019-05-06T20:30:57.585Z,100.13
2019-05-06T20:33:32.539Z,79.93
2019-05-06T20:36:04.499Z,69.33
2019-05-06T20:38:37.151Z,116.43
2019-05-06T20:41:09.745Z,78.23
2019-05-06T20:43:42.413Z,176.30
2019-05-06T20:46:15.020Z,106.37
2019-05-06T20:48:47.680Z,101.57
2019-05-06T20:51:21.957Z,129.10
2019-05-06T20:53:54.745Z,130.93
2019-05-06T20:56:27.521Z,80.23
2019-05-06T20:59:02.381Z,99.80
2019-05-06T21:01:34.880Z,93.30
2019-05-06T21:04:07.600Z,113.03
2019-05-06T21:06:42.418Z,103.70
2019-05-06T21:09:14.800Z,83.00
2019-05-06T21:11:47.510Z,56.93
2019-05-06T21:14:22.551Z,35.57
2019-05-06T21:16:54.720Z,69.20
2019-05-06T21:19:27.541Z,28.17
2019-05-06T21:22:02.182Z,46.43
2019-05-06T21:24:36.196Z,49.07
2019-05-06T21:27:08.821Z,37.90
2019-05-06T21:29:42.104Z,41.63
2019-05-06T21:32:14.775Z,33.27
2019-05-06T21:34:47.360Z,69.53
2019-05-06T21:37:20.461Z,35.43
2019-05-06T21:39:53.050Z,186.50
2019-05-06T21:42:25.740Z,99.57
2019-05-06T21:44:58.500Z,83.07
2019-05-06T21:47:32.542Z,70.33
2019-05-06T21:50:05.860Z,61.93
2019-05-06T21:52:42.272Z,106.57
2019-05-06T21:55:14.799Z,48.50
2019-05-06T21:57:47.074Z,47.07
2019-05-06T22:00:23.382Z,56.63
2019-05-06T22:02:57.870Z,113.17
2019-05-06T22:05:32.073Z,80.23
2019-05-06T22:08:04.900Z,44.27
2019-05-06T22:10:37.860Z,38.63
2019-05-06T22:13:12.596Z,46.67
2019-05-06T22:15:44.509Z,55.37
2019-05-06T22:18:17.045Z,46.43
2019-05-06T22:21:07.145Z,52.93
2019-05-06T22:23:55.418Z,56.70
2019-05-06T22:26:29.049Z,69.53
2019-05-06T22:29:02.159Z,60.50
2019-05-06T22:31:34.840Z,46.77
2019-05-06T22:34:07.665Z,48.43
2019-05-06T22:36:39.949Z,48.97
2019-05-06T22:39:13.566Z,35.97
2019-05-06T22:41:46.095Z,52.33
2019-05-06T22:44:18.780Z,39.43
2019-05-06T22:46:51.549Z,28.30
2019-05-06T22:49:24.824Z,27.03
2019-05-06T22:51:57.373Z,23.63
2019-05-06T22:54:31.976Z,23.43
2019-05-06T22:57:04.056Z,20.57
2019-05-06T22:59:36.975Z,24.33
2019-05-06T23:02:09.350Z,19.17
2019-05-06T23:04:43.618Z,21.17
2019-05-06T23:07:16.350Z,27.27
2019-05-06T23:09:49.500Z,21.77
2019-05-06T23:12:23.149Z,21.40
2019-05-06T23:14:55.717Z,29.83
2019-05-06T23:17:28.431Z,21.83
2019-05-06T23:20:02.322Z,25.60
2019-05-06T23:22:35.286Z,20.77
2019-05-06T23:25:08.740Z,22.27
2019-05-06T23:27:43.887Z,35.40
2019-05-06T23:30:15.730Z,43.33
2019-05-06T23:32:48.125Z,45.07
2019-05-06T23:35:21.995Z,41.57
2019-05-06T23:38:49.050Z,35.03
2019-05-06T23:42:16.194Z,35.53
2019-05-06T23:45:42.876Z,28.87
2019-05-06T23:49:09.759Z,27.23
2019-05-06T23:52:36.635Z,19.00
2019-05-06T23:56:04.080Z,19.20
2019-05-06T23:58:36.625Z,23.53
